Euskara    
Meteorología y climatología de Navarra
Datos de la estación - Meteo Navarra

Estación de Pamplona GN

Altitud 455 m.


Datos desde el 22/11/2020 hasta el 23/11/2020 en horario solar
Los datos son PROVISIONALES

Anterior Página 1 de 1 Siguiente Descargar: Formato para Excel 2000 o superior   Formato csv   Formato para OpenOffice Calc
Fecha Temperatura Humedad relativa Radiación global Insolación Precipitación Vel. viento 10 m Vel. viento 10 m Dir. viento 10 m
°C % W/m² s l/m² m/s km/h °
22/11/2020 0:00 3.3 80 0.0 0 0.0 1.5 5.3 88
22/11/2020 0:10 3.3 80 0.0 0 0.0 1.6 5.6 91
22/11/2020 0:20 3.3 80 0.0 0 0.0 1.5 5.5 108
22/11/2020 0:30 3.3 80 0.0 0 0.0 0.6 2.3 81
22/11/2020 0:40 3.1 81 0.0 0 0.0 0.5 1.8 79
22/11/2020 0:50 3.0 82 0.0 0 0.0 0.9 3.2 93
22/11/2020 1:00 2.9 81 0.0 0 0.0 1.4 4.9 82
22/11/2020 1:10 2.8 82 0.0 0 0.0 1.5 5.3 74
22/11/2020 1:20 2.3 84 0.0 0 0.0 1.7 6.2 86
22/11/2020 1:30 2.2 84 0.0 0 0.0 1.7 5.9 88
22/11/2020 1:40 2.1 84 0.0 0 0.0 1.2 4.2 70
22/11/2020 1:50 1.9 84 0.0 0 0.0 1.1 4.0 58
22/11/2020 2:00 1.9 85 0.0 0 0.0 1.6 5.8 83
22/11/2020 2:10 2.0 84 0.0 0 0.0 1.5 5.5 81
22/11/2020 2:20 2.0 85 0.0 0 0.0 1.3 4.8 95
22/11/2020 2:30 2.1 84 0.0 0 0.0 1.8 6.4 81
22/11/2020 2:40 1.9 84 0.0 0 0.0 1.7 6.0 78
22/11/2020 2:50 1.7 85 0.0 0 0.0 1.7 6.2 78
22/11/2020 3:00 1.8 85 0.0 0 0.0 1.5 5.4 88
22/11/2020 3:10 1.7 85 0.0 0 0.0 1.6 5.7 69
22/11/2020 3:20 1.5 86 0.0 0 0.0 1.4 4.9 87
22/11/2020 3:30 1.5 86 0.0 0 0.0 1.0 3.6 67
22/11/2020 3:40 1.2 87 0.0 0 0.0 1.1 4.0 72
22/11/2020 3:50 1.1 88 0.0 0 0.0 1.5 5.5 71
22/11/2020 4:00 1.0 88 0.0 0 0.0 2.0 7.2 81
22/11/2020 4:10 1.1 88 0.0 0 0.0 1.6 5.8 75
22/11/2020 4:20 1.0 88 0.0 0 0.0 1.7 6.0 78
22/11/2020 4:30 1.1 87 0.0 0 0.0 2.2 8.0 89
22/11/2020 4:40 1.0 87 0.0 0 0.0 2.4 8.5 97
22/11/2020 4:50 1.2 87 0.0 0 0.0 1.2 4.4 74
22/11/2020 5:00 0.8 87 0.0 0 0.0 1.5 5.4 57
22/11/2020 5:10 0.8 88 0.0 0 0.0 1.5 5.5 75
22/11/2020 5:20 1.0 88 0.0 0 0.0 1.3 4.6 94
22/11/2020 5:30 0.9 88 0.0 0 0.0 2.1 7.5 91
22/11/2020 5:40 1.0 87 0.0 0 0.0 1.8 6.3 82
22/11/2020 5:50 1.0 88 0.0 0 0.0 1.5 5.4 67
22/11/2020 6:00 1.0 88 0.0 0 0.0 1.4 5.1 78
22/11/2020 6:10 0.9 88 0.0 0 0.0 1.6 5.7 72
22/11/2020 6:20 0.8 89 0.0 0 0.0 1.5 5.3 82
22/11/2020 6:30 0.6 89 0.0 0 0.0 1.7 6.2 67
22/11/2020 6:40 0.4 89 0.0 0 0.0 1.9 6.8 72
22/11/2020 6:50 0.3 89 0.0 0 0.0 1.1 4.0 67
22/11/2020 7:00 0.4 89 0.0 0 0.0 1.2 4.5 98
22/11/2020 7:10 0.3 89 0.0 0 0.0 1.2 4.3 97
22/11/2020 7:20 0.3 89 0.0 0 0.0 1.2 4.5 102
22/11/2020 7:30 0.4 89 5.9 0 0.0 0.9 3.1 77
22/11/2020 7:40 0.4 89 21.2 2 0.0 1.2 4.2 67
22/11/2020 7:50 0.3 90 56.2 496 0.0 0.8 2.7 70
22/11/2020 8:00 0.7 88 84.9 600 0.0 1.5 5.4 64
22/11/2020 8:10 1.2 86 108.4 600 0.0 1.4 4.9 51
22/11/2020 8:20 1.6 83 135.1 600 0.0 0.9 3.3 66
22/11/2020 8:30 1.7 83 161.9 600 0.0 1.4 4.9 71
22/11/2020 8:40 1.9 82 187.5 600 0.0 1.7 6.0 77
22/11/2020 8:50 2.3 82 211.8 600 0.0 2.2 7.7 86
22/11/2020 9:00 2.7 80 234.4 600 0.0 1.6 5.8 70
22/11/2020 9:10 3.4 77 255.6 600 0.0 0.6 2.3 104
22/11/2020 9:20 3.7 76 277.8 600 0.0 0.4 1.5 59
22/11/2020 9:30 4.6 74 300.5 600 0.0 0.1 0.2 344
22/11/2020 9:40 4.9 71 322.4 600 0.0 0.4 1.5 39
22/11/2020 9:50 5.1 71 343.4 600 0.0 0.2 0.8 151
22/11/2020 10:00 5.6 69 363.3 600 0.0 0.6 2.3 129
22/11/2020 10:10 6.3 66 380.2 600 0.0 0.6 2.2 136
22/11/2020 10:20 6.0 67 394.3 600 0.0 0.6 2.3 64
22/11/2020 10:30 6.6 67 405.0 600 0.0 0.2 0.5 154
22/11/2020 10:40 7.5 62 415.0 600 0.0 0.1 0.4 135
22/11/2020 10:50 7.9 60 422.6 600 0.0 0.2 0.6 125
22/11/2020 11:00 8.2 60 428.8 600 0.0 0.3 0.9 115
22/11/2020 11:10 8.2 61 432.5 600 0.0 0.4 1.4 116
22/11/2020 11:20 8.6 60 433.6 600 0.0 0.2 0.7 112
22/11/2020 11:30 8.8 58 431.5 600 0.0 0.4 1.6 121
22/11/2020 11:40 9.1 56 427.4 600 0.0 0.5 1.8 110
22/11/2020 11:50 9.2 57 423.1 600 0.0 0.2 0.9 117
22/11/2020 12:00 9.3 56 420.0 600 0.0 0.3 1.0 119
22/11/2020 12:10 9.7 56 417.4 600 0.0 0.4 1.5 114
22/11/2020 12:20 9.7 54 416.6 600 0.0 0.4 1.6 107
22/11/2020 12:30 10.2 52 414.7 600 0.0 0.1 0.5 102
22/11/2020 12:40 10.4 51 415.2 600 0.0 0.4 1.4 112
22/11/2020 12:50 10.4 50 415.6 600 0.0 0.3 1.0 91
22/11/2020 13:00 10.9 50 416.0 600 0.0 0.3 0.9 138
22/11/2020 13:10 11.6 49 412.1 600 0.0 0.4 1.4 274
22/11/2020 13:20 12.4 46 409.2 600 0.0 0.5 1.8 223
22/11/2020 13:30 12.1 47 391.7 600 0.0 0.3 1.0 75
22/11/2020 13:40 12.2 47 376.4 600 0.0 0.5 1.8 232
22/11/2020 13:50 12.5 46 361.6 600 0.0 0.6 2.1 148
22/11/2020 14:00 11.9 47 350.1 600 0.0 0.8 3.0 350
22/11/2020 14:10 12.0 48 329.1 600 0.0 0.5 1.9 338
22/11/2020 14:20 12.7 46 306.7 600 0.0 0.2 0.8 283
22/11/2020 14:30 13.1 44 283.2 600 0.0 0.0 0.1 152
22/11/2020 14:40 13.1 45 244.0 600 0.0 0.0 0.0 68
22/11/2020 14:50 12.9 44 215.4 600 0.0 0.2 0.6 320
22/11/2020 15:00 13.3 43 193.7 600 0.0 0.2 0.8 295
22/11/2020 15:10 13.5 43 185.4 600 0.0 0.5 1.9 272
22/11/2020 15:20 13.5 43 156.5 600 0.0 0.2 0.5 302
22/11/2020 15:30 13.0 44 137.8 600 0.0 0.1 0.5 94
22/11/2020 15:40 12.5 46 92.8 400 0.0 0.2 0.8 95
22/11/2020 15:50 12.3 46 85.8 520 0.0 0.1 0.3 71
22/11/2020 16:00 12.1 47 70.2 600 0.0 0.1 0.4 45
22/11/2020 16:10 12.0 47 45.9 534 0.0 0.0 0.0 0
22/11/2020 16:20 12.1 47 10.2 0 0.0 0.0 0.0 0
22/11/2020 16:30 11.8 48 0.0 0 0.0 0.6 2.1 308
22/11/2020 16:40 11.6 49 0.0 0 0.0 0.1 0.2 295
22/11/2020 16:50 11.2 49 0.0 0 0.0 0.0 0.0 0
22/11/2020 17:00 11.0 51 0.0 0 0.0 0.0 0.0 0
22/11/2020 17:10 10.5 54 0.0 0 0.0 0.2 0.8 41
22/11/2020 17:20 9.5 59 0.0 0 0.0 0.7 2.4 60
22/11/2020 17:30 8.8 63 0.0 0 0.0 0.9 3.2 69
22/11/2020 17:40 8.3 66 0.0 0 0.0 1.3 4.6 86
22/11/2020 17:50 8.3 66 0.0 0 0.0 1.0 3.5 122
22/11/2020 18:00 8.1 68 0.0 0 0.0 0.8 2.8 94
22/11/2020 18:10 7.9 68 0.0 0 0.0 0.3 1.2 95
22/11/2020 18:20 7.6 70 0.0 0 0.0 1.1 4.1 98
22/11/2020 18:30 7.4 71 0.0 0 0.0 0.8 3.0 101
22/11/2020 18:40 7.1 72 0.0 0 0.0 0.8 2.8 101
22/11/2020 18:50 6.8 73 0.0 0 0.0 1.0 3.5 82
22/11/2020 19:00 6.6 74 0.0 0 0.0 0.9 3.3 85
22/11/2020 19:10 6.4 75 0.0 0 0.0 1.0 3.4 92
22/11/2020 19:20 6.1 76 0.0 0 0.0 1.0 3.5 93
22/11/2020 19:30 5.9 76 0.0 0 0.0 0.9 3.3 109
22/11/2020 19:40 5.9 77 0.0 0 0.0 1.4 5.1 88
22/11/2020 19:50 5.8 77 0.0 0 0.0 1.3 4.6 90
22/11/2020 20:00 5.5 78 0.0 0 0.0 1.2 4.5 80
22/11/2020 20:10 5.4 79 0.0 0 0.0 1.5 5.2 92
22/11/2020 20:20 5.3 79 0.0 0 0.0 1.5 5.4 94
22/11/2020 20:30 5.1 80 0.0 0 0.0 1.4 5.1 92
22/11/2020 20:40 5.0 80 0.0 0 0.0 1.4 5.0 97
22/11/2020 20:50 4.8 80 0.0 0 0.0 1.2 4.5 97
22/11/2020 21:00 4.8 81 0.0 0 0.0 0.8 2.9 113
22/11/2020 21:10 4.6 81 0.0 0 0.0 0.9 3.1 113
22/11/2020 21:20 4.4 82 0.0 0 0.0 1.2 4.2 107
22/11/2020 21:30 4.3 82 0.0 0 0.0 1.0 3.6 100
22/11/2020 21:40 4.1 83 0.0 0 0.0 0.8 2.9 79
22/11/2020 21:50 4.0 83 0.0 0 0.0 0.6 2.1 99
22/11/2020 22:00 3.9 84 0.0 0 0.0 0.7 2.5 90
22/11/2020 22:10 3.7 84 0.0 0 0.0 0.9 3.2 61
22/11/2020 22:20 3.4 85 0.0 0 0.0 0.6 2.1 85
22/11/2020 22:30 3.5 85 0.0 0 0.0 0.7 2.5 87
22/11/2020 22:40 3.3 85 0.0 0 0.0 0.5 1.9 99
22/11/2020 22:50 3.4 85 0.0 0 0.0 1.0 3.5 92
22/11/2020 23:00 3.3 86 0.0 0 0.0 1.4 4.9 97
22/11/2020 23:10 3.3 86 0.0 0 0.0 1.7 6.2 84
22/11/2020 23:20 3.1 86 0.0 0 0.0 1.7 6.1 81
22/11/2020 23:30 2.9 87 0.0 0 0.0 1.0 3.7 75
22/11/2020 23:40 2.7 87 0.0 0 0.0 0.8 3.0 100
22/11/2020 23:50 2.7 87 0.0 0 0.0 0.4 1.6 121
Anterior Página 1 de 1 Siguiente

NOTA: Tipo de datos según el color:
   - Valores diarios o 10 minutos correctos
   - Valores diarios calculados a partir de un número de datos 10 minutos menor que 144 y mayor que 120, o de un número de datos semihorarios menor que 48 y mayor que 40 (caso de las estaciones de INTIA Y Ministerio)
   - Valores diez minutos estimados


Contacto        Enlaces        Aviso legal